createdAt,value
2018-09-12T00:02:28.584Z,20.32
2018-09-12T00:04:59.254Z,20.30
2018-09-12T00:07:29.960Z,20.32
2018-09-12T00:10:00.640Z,20.29
2018-09-12T00:12:31.354Z,20.29
2018-09-12T00:15:02.096Z,20.38
2018-09-12T00:17:32.760Z,20.46
2018-09-12T00:20:03.489Z,20.34
2018-09-12T00:22:34.167Z,20.44
2018-09-12T00:25:04.964Z,20.36
2018-09-12T00:27:35.683Z,20.37
2018-09-12T00:30:06.454Z,20.35
2018-09-12T00:32:37.188Z,20.29
2018-09-12T00:35:07.987Z,20.31
2018-09-12T00:37:38.693Z,20.30
2018-09-12T00:40:09.424Z,20.30
2018-09-12T00:42:40.100Z,20.23
2018-09-12T00:45:10.752Z,20.19
2018-09-12T00:47:41.491Z,20.27
2018-09-12T00:50:12.136Z,20.20
2018-09-12T00:52:42.805Z,20.16
2018-09-12T00:55:13.489Z,20.09
2018-09-12T00:57:44.188Z,20.06
2018-09-12T01:00:14.912Z,20.02
2018-09-12T01:02:45.648Z,20.04
2018-09-12T01:05:16.391Z,20.03
2018-09-12T01:07:47.068Z,20.02
2018-09-12T01:10:17.900Z,19.92
2018-09-12T01:12:48.621Z,19.88
2018-09-12T01:15:19.451Z,19.89
2018-09-12T01:17:50.144Z,19.85
2018-09-12T01:20:20.883Z,19.80
2018-09-12T01:22:51.528Z,19.80
2018-09-12T01:25:22.226Z,19.74
2018-09-12T01:27:57.114Z,19.66
2018-09-12T01:30:27.870Z,19.67
2018-09-12T01:32:58.657Z,19.66
2018-09-12T01:35:29.437Z,19.62
2018-09-12T01:38:00.270Z,19.57
2018-09-12T01:40:30.933Z,19.57
2018-09-12T01:43:01.624Z,19.52
2018-09-12T01:45:32.297Z,19.52
2018-09-12T01:48:03.078Z,19.46
2018-09-12T01:50:33.710Z,19.44
2018-09-12T01:53:04.405Z,19.35
2018-09-12T01:55:35.105Z,19.32
2018-09-12T01:58:05.838Z,19.24
2018-09-12T02:00:39.405Z,19.26
2018-09-12T02:03:10.600Z,19.30
2018-09-12T02:05:41.345Z,19.29
2018-09-12T02:08:12.008Z,19.20
2018-09-12T02:10:42.684Z,19.17
2018-09-12T02:13:13.415Z,19.13
2018-09-12T02:15:44.076Z,19.12
2018-09-12T02:18:14.813Z,19.10
2018-09-12T02:20:45.608Z,19.06
2018-09-12T02:23:16.352Z,19.02
2018-09-12T02:25:46.975Z,19.13
2018-09-12T02:28:17.673Z,19.27
2018-09-12T02:30:48.411Z,19.07
2018-09-12T02:33:19.204Z,19.01
2018-09-12T02:35:55.032Z,18.99
2018-09-12T02:38:25.794Z,18.96
2018-09-12T02:40:56.733Z,18.93
2018-09-12T02:43:27.537Z,18.90
2018-09-12T02:45:58.387Z,18.86
2018-09-12T02:48:29.149Z,18.99
2018-09-12T02:50:59.864Z,18.86
2018-09-12T02:53:30.603Z,18.95
2018-09-12T02:56:01.326Z,19.01
2018-09-12T02:58:32.157Z,18.89
2018-09-12T03:01:02.919Z,18.81
2018-09-12T03:03:33.693Z,18.82
2018-09-12T03:06:04.559Z,18.77
2018-09-12T03:08:35.321Z,18.71
2018-09-12T03:11:06.271Z,18.79
2018-09-12T03:13:36.989Z,18.67
2018-09-12T03:16:07.801Z,18.62
2018-09-12T03:18:38.504Z,18.58
2018-09-12T03:21:09.294Z,18.68
2018-09-12T03:23:39.923Z,18.69
2018-09-12T03:26:10.703Z,18.63
2018-09-12T03:28:41.367Z,18.58
2018-09-12T03:31:12.104Z,18.69
2018-09-12T03:33:42.801Z,18.63
2018-09-12T03:36:13.491Z,18.52
2018-09-12T03:38:44.242Z,18.48
2018-09-12T03:41:15.077Z,18.46
2018-09-12T03:43:45.765Z,18.43
2018-09-12T03:46:16.501Z,18.51
2018-09-12T03:48:47.591Z,18.35
2018-09-12T03:51:18.479Z,18.39
2018-09-12T03:53:49.129Z,18.55
2018-09-12T03:56:19.874Z,18.51
2018-09-12T03:58:50.656Z,18.51
2018-09-12T04:01:21.454Z,18.33
2018-09-12T04:03:52.310Z,18.41
2018-09-12T04:06:23.311Z,18.35
2018-09-12T04:08:54.019Z,18.31
2018-09-12T04:11:24.749Z,18.29
2018-09-12T04:13:55.533Z,18.30
2018-09-12T04:16:26.269Z,18.22
2018-09-12T04:18:57.013Z,18.34
2018-09-12T04:21:27.736Z,18.21
2018-09-12T04:23:58.495Z,18.14
2018-09-12T04:26:29.315Z,18.25
2018-09-12T04:29:00.000Z,18.17
2018-09-12T04:31:30.746Z,18.12
2018-09-12T04:34:01.465Z,18.19
2018-09-12T04:36:32.177Z,18.13
2018-09-12T04:39:03.000Z,18.12
2018-09-12T04:41:33.730Z,18.05
2018-09-12T04:44:04.590Z,18.03
2018-09-12T04:46:35.940Z,17.99
2018-09-12T04:49:06.947Z,17.94
2018-09-12T04:51:37.692Z,17.91
2018-09-12T04:54:08.654Z,17.91
2018-09-12T04:56:39.401Z,18.01
2018-09-12T04:59:10.105Z,17.90
2018-09-12T05:01:40.790Z,17.89
2018-09-12T05:04:11.573Z,17.87
2018-09-12T05:06:42.292Z,17.88
2018-09-12T05:09:13.188Z,17.88
2018-09-12T05:11:43.857Z,17.84
2018-09-12T05:14:14.640Z,17.88
2018-09-12T05:16:45.660Z,17.85
2018-09-12T05:19:16.401Z,17.83
2018-09-12T05:21:47.165Z,17.86
2018-09-12T05:24:17.972Z,17.93
2018-09-12T05:26:48.804Z,17.85
2018-09-12T05:29:19.547Z,17.89
2018-09-12T05:31:50.227Z,17.84
2018-09-12T05:34:20.973Z,17.87
2018-09-12T05:36:51.648Z,17.83
2018-09-12T05:39:22.369Z,17.98
2018-09-12T05:41:53.065Z,17.95
2018-09-12T05:44:23.837Z,17.98
2018-09-12T05:46:54.458Z,18.06
2018-09-12T05:49:25.160Z,18.07
2018-09-12T05:51:55.845Z,18.06
2018-09-12T05:54:26.533Z,18.09
2018-09-12T05:56:57.207Z,18.18
2018-09-12T05:59:27.951Z,18.24
2018-09-12T06:01:58.622Z,18.25
2018-09-12T06:04:29.324Z,18.27
2018-09-12T06:07:00.143Z,18.30
2018-09-12T06:09:30.701Z,18.43
2018-09-12T06:12:01.404Z,18.53
2018-09-12T06:14:32.134Z,18.61
2018-09-12T06:17:02.929Z,18.64
2018-09-12T06:19:33.687Z,18.74
2018-09-12T06:22:04.495Z,18.99
2018-09-12T06:24:35.260Z,18.98
2018-09-12T06:27:06.128Z,19.16
2018-09-12T06:29:36.856Z,19.24
2018-09-12T06:32:07.581Z,19.34
2018-09-12T06:34:38.320Z,19.46
2018-09-12T06:37:08.964Z,19.60
2018-09-12T06:39:39.709Z,19.72
2018-09-12T06:42:10.390Z,19.91
2018-09-12T06:44:41.218Z,19.92
2018-09-12T06:47:12.065Z,20.08
2018-09-12T06:49:47.264Z,20.02
2018-09-12T06:52:20.403Z,19.99
2018-09-12T06:54:51.662Z,20.10
2018-09-12T06:57:22.416Z,20.21
2018-09-12T06:59:53.100Z,20.31
2018-09-12T07:02:23.792Z,20.40
2018-09-12T07:04:54.651Z,20.37
2018-09-12T07:07:25.385Z,20.44
2018-09-12T07:09:56.270Z,20.39
2018-09-12T07:12:26.925Z,20.49
2018-09-12T07:14:57.657Z,20.60
2018-09-12T07:17:28.333Z,20.70
2018-09-12T07:19:59.115Z,20.76
2018-09-12T07:22:29.812Z,21.22
2018-09-12T07:25:00.481Z,21.51
2018-09-12T07:27:31.591Z,21.89
2018-09-12T07:30:02.315Z,22.08
2018-09-12T07:32:32.996Z,22.16
2018-09-12T07:35:03.818Z,22.19
2018-09-12T07:37:34.633Z,22.36
2018-09-12T07:40:05.547Z,22.37
2018-09-12T07:42:36.357Z,22.24
2018-09-12T07:45:07.731Z,22.16
2018-09-12T07:47:38.445Z,22.09
2018-09-12T07:50:09.326Z,21.88
2018-09-12T07:52:40.173Z,21.67
2018-09-12T07:55:10.990Z,21.48
2018-09-12T07:57:41.831Z,21.35
2018-09-12T08:00:12.753Z,21.10
2018-09-12T08:02:43.411Z,21.09
2018-09-12T08:05:14.218Z,21.10
2018-09-12T08:07:44.928Z,21.20
2018-09-12T08:10:17.533Z,21.25
2018-09-12T08:12:49.420Z,21.14
2018-09-12T08:15:20.231Z,20.99
2018-09-12T08:17:51.062Z,20.79
2018-09-12T08:20:21.896Z,20.79
2018-09-12T08:22:52.599Z,20.92
2018-09-12T08:25:24.441Z,21.47
2018-09-12T08:27:55.214Z,22.13
2018-09-12T08:30:26.632Z,22.66
2018-09-12T08:32:57.450Z,23.26
2018-09-12T08:35:28.164Z,23.57
2018-09-12T08:37:58.927Z,23.92
2018-09-12T08:40:29.875Z,23.99
2018-09-12T08:43:00.628Z,24.00
2018-09-12T08:45:31.368Z,24.36
2018-09-12T08:48:02.119Z,24.54
2018-09-12T08:50:32.887Z,24.52
2018-09-12T08:53:06.513Z,24.62
2018-09-12T08:55:37.331Z,24.82
2018-09-12T08:58:08.232Z,25.20
2018-09-12T09:00:39.517Z,25.44
2018-09-12T09:03:10.309Z,25.51
2018-09-12T09:05:41.085Z,25.94
2018-09-12T09:08:11.847Z,26.15
2018-09-12T09:10:42.597Z,26.94
2018-09-12T09:13:13.384Z,27.16
2018-09-12T09:15:44.212Z,26.72
2018-09-12T09:18:17.356Z,26.64
2018-09-12T09:20:48.197Z,26.35
2018-09-12T09:23:18.883Z,26.12
2018-09-12T09:25:49.628Z,26.48
2018-09-12T09:28:20.345Z,26.99
2018-09-12T09:30:51.087Z,27.20
2018-09-12T09:33:21.920Z,26.76
2018-09-12T09:35:52.743Z,26.83
2018-09-12T09:38:24.400Z,26.60
2018-09-12T09:40:56.549Z,26.39
2018-09-12T09:43:27.443Z,26.44
2018-09-12T09:45:58.940Z,26.70
2018-09-12T09:48:30.765Z,27.26
2018-09-12T09:51:02.579Z,27.97
2018-09-12T09:53:33.742Z,28.13
2018-09-12T09:56:04.707Z,28.44
2018-09-12T09:58:39.978Z,28.70
2018-09-12T10:01:16.946Z,28.34
2018-09-12T10:03:52.878Z,28.43
2018-09-12T10:07:29.604Z,28.99
2018-09-12T10:10:04.775Z,29.38
2018-09-12T10:12:35.927Z,29.69
2018-09-12T10:15:07.125Z,29.45
2018-09-12T10:17:40.632Z,29.80
2018-09-12T10:20:11.389Z,29.97
2018-09-12T10:22:42.081Z,29.39
2018-09-12T10:25:12.743Z,28.89
2018-09-12T10:27:43.467Z,28.42
2018-09-12T10:30:14.193Z,28.23
2018-09-12T10:32:44.909Z,28.05
2018-09-12T10:35:15.582Z,27.83
2018-09-12T10:37:46.271Z,27.78
2018-09-12T10:40:16.920Z,27.81
2018-09-12T10:42:47.625Z,27.69
2018-09-12T10:45:18.366Z,28.06
2018-09-12T10:47:49.148Z,28.55
2018-09-12T10:50:19.860Z,28.79
2018-09-12T10:52:50.574Z,29.04
2018-09-12T10:55:21.286Z,29.27
2018-09-12T10:57:51.964Z,29.45
2018-09-12T11:00:22.730Z,29.78
2018-09-12T11:02:53.483Z,30.18
2018-09-12T11:05:24.235Z,30.38
2018-09-12T11:07:54.893Z,30.52
2018-09-12T11:10:25.651Z,30.68
2018-09-12T11:12:56.953Z,30.23
2018-09-12T11:15:27.665Z,29.57
2018-09-12T11:17:58.415Z,29.22
2018-09-12T11:20:29.176Z,28.68
2018-09-12T11:23:00.715Z,28.13
2018-09-12T11:25:31.432Z,28.56
2018-09-12T11:28:02.133Z,28.79
2018-09-12T11:30:32.870Z,28.51
2018-09-12T11:33:03.621Z,28.51
2018-09-12T11:35:34.408Z,28.51
2018-09-12T11:38:05.122Z,28.54
2018-09-12T11:40:35.905Z,28.36
2018-09-12T11:43:06.683Z,27.94
2018-09-12T11:45:37.356Z,27.81
2018-09-12T11:48:08.324Z,27.56
2018-09-12T11:50:39.068Z,27.43
2018-09-12T11:53:09.719Z,27.39
2018-09-12T11:55:40.418Z,27.31
2018-09-12T11:58:11.048Z,27.41
2018-09-12T12:00:41.798Z,27.44
2018-09-12T12:03:12.501Z,27.39
2018-09-12T12:05:43.241Z,27.19
2018-09-12T12:08:13.975Z,26.97
2018-09-12T12:10:44.683Z,26.38
2018-09-12T12:13:15.387Z,26.24
2018-09-12T12:15:46.025Z,26.26
2018-09-12T12:18:16.668Z,26.26
2018-09-12T12:20:47.394Z,26.15
2018-09-12T12:23:18.171Z,26.01
2018-09-12T12:25:48.897Z,25.83
2018-09-12T12:28:19.562Z,25.81
2018-09-12T12:30:50.325Z,25.74
2018-09-12T12:33:21.007Z,25.47
2018-09-12T12:35:51.739Z,25.25
2018-09-12T12:38:22.421Z,25.16
2018-09-12T12:40:53.153Z,25.06
2018-09-12T12:43:23.830Z,24.98
2018-09-12T12:45:54.540Z,25.00
2018-09-12T12:48:25.275Z,24.84
2018-09-12T12:50:56.027Z,24.77
2018-09-12T12:53:26.776Z,24.72
2018-09-12T12:55:57.537Z,24.53
2018-09-12T12:58:28.208Z,24.34
2018-09-12T13:00:58.921Z,24.40
2018-09-12T13:03:29.603Z,24.40
2018-09-12T13:06:00.277Z,24.33
2018-09-12T13:08:30.928Z,24.24
2018-09-12T13:11:01.652Z,24.25
2018-09-12T13:13:32.347Z,24.22
2018-09-12T13:16:03.209Z,24.25
2018-09-12T13:18:34.027Z,24.12
2018-09-12T13:21:04.658Z,24.11
2018-09-12T13:23:35.431Z,24.08
2018-09-12T13:26:06.099Z,23.99
2018-09-12T13:28:36.799Z,24.04
2018-09-12T13:31:07.554Z,24.12
2018-09-12T13:33:38.241Z,24.14
2018-09-12T13:36:08.960Z,24.04
2018-09-12T13:38:39.644Z,23.97
2018-09-12T13:41:10.226Z,23.84
2018-09-12T13:43:40.900Z,23.50
2018-09-12T13:46:11.533Z,23.30
2018-09-12T13:48:42.220Z,23.20
2018-09-12T13:51:12.938Z,23.10
2018-09-12T13:53:43.573Z,23.09
2018-09-12T13:56:14.252Z,23.08
2018-09-12T13:58:44.886Z,22.88
2018-09-12T14:01:15.602Z,22.77
2018-09-12T14:03:46.383Z,22.61
2018-09-12T14:06:16.980Z,22.47
2018-09-12T14:08:47.690Z,22.31
2018-09-12T14:11:18.491Z,22.15
2018-09-12T14:13:49.181Z,21.99
2018-09-12T14:16:19.875Z,21.90
2018-09-12T14:18:50.719Z,21.91
2018-09-12T14:21:21.455Z,21.89
2018-09-12T14:23:52.135Z,21.91
2018-09-12T14:26:22.768Z,21.81
2018-09-12T14:28:53.442Z,21.62
2018-09-12T14:31:24.127Z,21.56
2018-09-12T14:33:54.850Z,21.39
2018-09-12T14:36:25.569Z,21.06
2018-09-12T14:38:56.292Z,20.84
2018-09-12T14:41:27.066Z,20.67
2018-09-12T14:43:57.804Z,20.47
2018-09-12T14:46:28.489Z,20.36
2018-09-12T14:48:59.219Z,20.32
2018-09-12T14:51:29.974Z,20.14
2018-09-12T14:54:00.825Z,20.05
2018-09-12T14:56:31.547Z,19.81
2018-09-12T14:59:02.412Z,19.70
2018-09-12T15:01:33.127Z,19.67
2018-09-12T15:04:03.979Z,19.66
2018-09-12T15:06:34.711Z,19.58
2018-09-12T15:09:08.379Z,19.43
2018-09-12T15:11:39.163Z,19.40
2018-09-12T15:14:10.299Z,19.30
2018-09-12T15:16:41.125Z,19.22
2018-09-12T15:19:11.860Z,19.18
2018-09-12T15:21:42.705Z,19.11
2018-09-12T15:24:13.426Z,19.02
2018-09-12T15:26:44.170Z,18.88
2018-09-12T15:29:15.516Z,18.82
2018-09-12T15:31:46.195Z,18.77
2018-09-12T15:34:16.875Z,18.72
2018-09-12T15:36:47.589Z,18.70
2018-09-12T15:39:18.406Z,18.66
2018-09-12T15:41:49.121Z,18.58
2018-09-12T15:44:19.939Z,18.52
2018-09-12T15:46:50.593Z,18.57
2018-09-12T15:49:21.363Z,18.48
2018-09-12T15:51:52.133Z,18.38
2018-09-12T15:54:22.829Z,18.31
2018-09-12T15:56:53.532Z,18.24
2018-09-12T15:59:24.425Z,18.43
2018-09-12T16:02:01.926Z,18.59
2018-09-12T16:04:32.662Z,18.79
2018-09-12T16:07:03.384Z,18.95
2018-09-12T16:09:34.105Z,19.03
2018-09-12T16:12:04.997Z,19.11
2018-09-12T16:14:35.944Z,19.08
2018-09-12T16:17:06.867Z,19.16
2018-09-12T16:19:37.668Z,19.31
2018-09-12T16:22:08.468Z,19.29
2018-09-12T16:24:39.610Z,19.07
2018-09-12T16:27:10.424Z,18.85
2018-09-12T16:29:41.136Z,18.76
2018-09-12T16:32:11.929Z,18.56
2018-09-12T16:34:43.745Z,18.57
2018-09-12T16:37:14.413Z,18.52
2018-09-12T16:39:45.134Z,18.35
2018-09-12T16:42:15.887Z,18.27
2018-09-12T16:44:46.605Z,18.16
2018-09-12T16:47:17.297Z,18.10
2018-09-12T16:49:48.215Z,18.01
2018-09-12T16:52:18.993Z,17.98
2018-09-12T16:54:51.134Z,17.99
2018-09-12T16:57:20.954Z,17.92
2018-09-12T16:59:51.626Z,17.89
2018-09-12T17:02:22.553Z,17.88
2018-09-12T17:04:56.557Z,17.87
2018-09-12T17:07:27.314Z,17.87
2018-09-12T17:09:58.049Z,17.90
2018-09-12T17:12:28.703Z,17.84
2018-09-12T17:14:59.538Z,17.81
2018-09-12T17:17:36.123Z,17.83
2018-09-12T17:20:07.571Z,17.88
2018-09-12T17:22:38.377Z,17.82
2018-09-12T17:25:09.339Z,17.78
2018-09-12T17:27:41.648Z,17.72
2018-09-12T17:30:12.986Z,17.75
2018-09-12T17:32:43.769Z,17.74
2018-09-12T17:35:14.604Z,17.72
2018-09-12T17:37:46.721Z,17.63
2018-09-12T17:40:18.929Z,17.64
2018-09-12T17:42:50.010Z,17.67
2018-09-12T17:45:20.853Z,17.72
2018-09-12T17:47:53.488Z,17.66
2018-09-12T17:50:24.275Z,17.68
2018-09-12T17:52:55.040Z,17.54
2018-09-12T17:55:25.938Z,17.47
2018-09-12T17:57:56.857Z,17.48
2018-09-12T18:00:30.159Z,17.51
2018-09-12T18:03:00.998Z,17.43
2018-09-12T18:05:41.541Z,17.40
2018-09-12T18:08:12.380Z,17.33
2018-09-12T18:10:43.221Z,17.32
2018-09-12T18:13:15.340Z,17.28
2018-09-12T18:15:46.153Z,17.22
2018-09-12T18:18:17.953Z,17.13
2018-09-12T18:20:49.255Z,17.16
2018-09-12T18:23:21.018Z,17.20
2018-09-12T18:25:51.985Z,17.26
2018-09-12T18:28:27.074Z,17.20
2018-09-12T18:31:02.118Z,17.09
2018-09-12T18:33:32.932Z,17.13
2018-09-12T18:36:03.706Z,16.99
2018-09-12T18:38:34.990Z,16.91
2018-09-12T18:41:05.930Z,16.98
2018-09-12T18:43:36.689Z,16.98
2018-09-12T18:46:07.592Z,16.94
2018-09-12T18:48:38.658Z,16.95
2018-09-12T18:51:11.147Z,16.95
2018-09-12T18:53:41.900Z,16.89
2018-09-12T18:56:12.621Z,16.87
2018-09-12T18:58:43.318Z,16.82
2018-09-12T19:01:14.174Z,16.76
2018-09-12T19:03:44.895Z,16.80
2018-09-12T19:06:15.832Z,16.69
2018-09-12T19:08:46.579Z,16.67
2018-09-12T19:11:17.445Z,16.71
2018-09-12T19:13:49.197Z,16.72
2018-09-12T19:16:24.249Z,16.68
2018-09-12T19:18:54.937Z,16.68
2018-09-12T19:21:25.821Z,16.65
2018-09-12T19:23:56.496Z,16.64
2018-09-12T19:26:27.271Z,16.57
2018-09-12T19:28:58.024Z,16.61
2018-09-12T19:31:28.717Z,16.58
2018-09-12T19:33:59.636Z,16.51
2018-09-12T19:36:30.288Z,16.51
2018-09-12T19:39:01.092Z,16.57
2018-09-12T19:41:31.921Z,16.58
2018-09-12T19:44:02.681Z,16.61
2018-09-12T19:46:33.463Z,16.58
2018-09-12T19:49:04.562Z,16.57
2018-09-12T19:51:35.277Z,16.57
2018-09-12T19:54:06.476Z,16.47
2018-09-12T19:56:37.265Z,16.51
2018-09-12T19:59:07.984Z,16.41
2018-09-12T20:01:38.724Z,16.40
2018-09-12T20:04:09.467Z,16.44
2018-09-12T20:06:40.184Z,16.33
2018-09-12T20:09:12.124Z,16.31
2018-09-12T20:11:42.987Z,16.32
2018-09-12T20:14:13.769Z,16.37
2018-09-12T20:16:44.472Z,16.34
2018-09-12T20:19:15.281Z,16.31
2018-09-12T20:21:46.065Z,16.31
2018-09-12T20:24:16.831Z,16.30
2018-09-12T20:26:47.634Z,16.32
2018-09-12T20:29:18.430Z,16.35
2018-09-12T20:31:49.169Z,16.38
2018-09-12T20:34:20.038Z,16.36
2018-09-12T20:36:50.794Z,16.37
2018-09-12T20:39:21.761Z,16.40
2018-09-12T20:41:52.441Z,16.43
2018-09-12T20:44:23.179Z,16.41
2018-09-12T20:46:53.997Z,16.45
2018-09-12T20:49:24.747Z,16.38
2018-09-12T20:51:55.532Z,16.35
2018-09-12T20:54:26.277Z,16.34
2018-09-12T20:56:57.116Z,16.35
2018-09-12T20:59:27.951Z,16.36
2018-09-12T21:01:58.689Z,16.34
2018-09-12T21:04:29.412Z,16.34
2018-09-12T21:07:00.143Z,16.33
2018-09-12T21:09:30.836Z,16.35
2018-09-12T21:12:01.584Z,16.34
2018-09-12T21:14:32.312Z,16.26
2018-09-12T21:17:03.105Z,16.19
2018-09-12T21:19:33.815Z,16.17
2018-09-12T21:22:04.595Z,16.16
2018-09-12T21:24:35.536Z,16.16
2018-09-12T21:27:06.333Z,16.15
2018-09-12T21:29:37.068Z,16.12
2018-09-12T21:32:07.841Z,16.17
2018-09-12T21:34:38.629Z,16.17
2018-09-12T21:37:09.363Z,16.14
2018-09-12T21:39:40.154Z,16.13
2018-09-12T21:42:10.877Z,16.20
2018-09-12T21:44:41.556Z,16.17
2018-09-12T21:47:12.287Z,16.26
2018-09-12T21:49:42.967Z,16.20
2018-09-12T21:52:13.723Z,16.17
2018-09-12T21:54:44.416Z,16.17
2018-09-12T21:57:15.214Z,16.17
2018-09-12T21:59:45.881Z,16.19
2018-09-12T22:02:16.631Z,16.19
2018-09-12T22:04:47.339Z,16.15
2018-09-12T22:07:18.316Z,16.15
2018-09-12T22:09:49.058Z,16.21
2018-09-12T22:12:19.737Z,16.17
2018-09-12T22:14:50.453Z,16.18
2018-09-12T22:17:21.144Z,16.13
2018-09-12T22:19:51.939Z,16.15
2018-09-12T22:22:22.677Z,16.14
2018-09-12T22:24:53.359Z,16.17
2018-09-12T22:27:24.142Z,16.17
2018-09-12T22:29:54.986Z,16.20
2018-09-12T22:32:25.922Z,16.14
2018-09-12T22:34:56.883Z,16.13
2018-09-12T22:37:28.297Z,16.17
2018-09-12T22:39:59.017Z,16.14
2018-09-12T22:42:29.906Z,16.10
2018-09-12T22:45:00.600Z,16.09
2018-09-12T22:47:31.492Z,16.09
2018-09-12T22:50:02.230Z,16.07
2018-09-12T22:52:32.961Z,16.10
2018-09-12T22:55:04.436Z,15.99
2018-09-12T22:57:35.189Z,15.96
2018-09-12T23:00:06.705Z,15.86
2018-09-12T23:02:37.469Z,15.88
2018-09-12T23:05:08.417Z,15.84
2018-09-12T23:07:39.339Z,15.80
2018-09-12T23:10:10.105Z,15.78
2018-09-12T23:12:40.828Z,15.79
2018-09-12T23:15:11.688Z,15.71
2018-09-12T23:17:42.447Z,15.76
2018-09-12T23:20:13.163Z,15.71
2018-09-12T23:22:43.981Z,15.77
2018-09-12T23:25:14.706Z,15.73
2018-09-12T23:27:45.470Z,15.65
2018-09-12T23:30:16.141Z,15.68
2018-09-12T23:32:46.848Z,15.66
2018-09-12T23:35:17.528Z,15.66
2018-09-12T23:37:48.214Z,15.63
2018-09-12T23:40:18.992Z,15.68
2018-09-12T23:42:49.636Z,15.69
2018-09-12T23:45:20.309Z,15.63
2018-09-12T23:47:51.005Z,15.58
2018-09-12T23:50:21.735Z,15.59
2018-09-12T23:52:52.407Z,15.49
2018-09-12T23:55:23.107Z,15.45
2018-09-12T23:57:53.826Z,15.43
